Main page
METAR-TAF:

METAR-TAF

Airports :

Lucius D. Clay Kaserne

Wiesbaden, Germany

latitude: 50-03N, longitude: 008-20E, elevation: 140 m

Current weather observation

The report was made 43 minutes ago, at 12:56 UTC
Wind 8 kt from the North
Temperature 21°C
Humidity 28%
Pressure 1029 hPa
Visibility 10 km or more
Clear sky

METAR: ETOU 281256Z AUTO 01008KT 9999 CLR 21/02 A3040 RMK AO2 SLP294 T02110019

Time: 15:39 (13:39 UTC)

Forecast

The report was made 1 hour and 39 minutes ago, at 12:00 UTC
Forecast valid from 28 at 12 UTC to 29 at 18 UTC
Wind 10 kt from the North/Northeast with gusts up to 15 kt
Visibility 10 km or more
Clear sky
Becoming
from 28 at 23 UTC to 28 at 24 UTC
Wind 6 kt from variable directions
Visibility 10 km or more
Few clouds at a height of 4500 ft

TAF: ETOU 281200Z 2812/2918 02010G15KT 9999 SKC QNH3040INS BECMG 2823/2824 VRB06KT 9999 FEW045 QNH3025INS TX25/2912Z TN08/2904Z

Weather observations and forecasts of more than 4000 airports (METAR and TAF reports).

The available stations are represented by yellow and red dots on the map.

Hover mouse over dot to see the name of the station.

Then click to see weather observations and forecasts.

To change the map : click on the green buttons with a black cross to zoom in, on the green button with a dash to zoom out, or on the green arrows for adjacent maps.


METAR-TAF: